sensor_id;sensor_type;location;lat;lon;timestamp;P1;durP1;ratioP1;P2;durP2;ratioP2
12888;SDS011;56848;49.896;11.424;2022-11-15T05:01:58;20.37;;;11.33;;
12888;SDS011;56848;49.896;11.424;2022-11-15T05:04:24;22.80;;;12.03;;
12888;SDS011;56848;49.896;11.424;2022-11-15T05:06:50;20.73;;;11.77;;
12888;SDS011;56848;49.896;11.424;2022-11-15T05:09:19;37.53;;;12.40;;
12888;SDS011;56848;49.896;11.424;2022-11-15T05:11:45;30.80;;;13.67;;
12888;SDS011;56848;49.896;11.424;2022-11-15T05:14:11;18.70;;;10.80;;
12888;SDS011;56848;49.896;11.424;2022-11-15T05:16:38;27.20;;;11.30;;
12888;SDS011;56848;49.896;11.424;2022-11-15T05:19:04;24.13;;;9.93;;
12888;SDS011;56848;49.896;11.424;2022-11-15T05:21:29;17.20;;;9.90;;
12888;SDS011;56848;49.896;11.424;2022-11-15T05:23:55;16.60;;;9.73;;
12888;SDS011;56848;49.896;11.424;2022-11-15T05:26:21;14.80;;;8.80;;
12888;SDS011;56848;49.896;11.424;2022-11-15T05:28:51;16.80;;;9.20;;
12888;SDS011;56848;49.896;11.424;2022-11-15T05:31:18;17.93;;;9.10;;
12888;SDS011;56848;49.896;11.424;2022-11-15T05:33:43;24.47;;;9.33;;
12888;SDS011;56848;49.896;11.424;2022-11-15T05:36:11;21.43;;;9.53;;
12888;SDS011;56848;49.896;11.424;2022-11-15T05:38:38;19.30;;;9.50;;
12888;SDS011;56848;49.896;11.424;2022-11-15T05:41:04;18.37;;;9.30;;
12888;SDS011;56848;49.896;11.424;2022-11-15T05:43:31;18.40;;;10.60;;
12888;SDS011;56848;49.896;11.424;2022-11-15T05:45:59;17.23;;;9.87;;
12888;SDS011;56848;49.896;11.424;2022-11-15T05:48:26;19.65;;;9.82;;
12888;SDS011;56848;49.896;11.424;2022-11-15T05:50:52;16.50;;;9.67;;
12888;SDS011;56848;49.896;11.424;2022-11-15T05:53:18;15.83;;;9.20;;
12888;SDS011;56848;49.896;11.424;2022-11-15T05:55:46;18.20;;;9.40;;
12888;SDS011;56848;49.896;11.424;2022-11-15T05:58:12;17.37;;;9.70;;
12888;SDS011;56848;49.896;11.424;2022-11-15T06:00:38;31.47;;;14.27;;
12888;SDS011;56848;49.896;11.424;2022-11-15T06:03:04;30.23;;;12.30;;
12888;SDS011;56848;49.896;11.424;2022-11-15T06:05:29;31.93;;;15.60;;
12888;SDS011;56848;49.896;11.424;2022-11-15T06:07:58;20.73;;;12.40;;
12888;SDS011;56848;49.896;11.424;2022-11-15T06:10:24;19.00;;;10.70;;
12888;SDS011;56848;49.896;11.424;2022-11-15T06:12:56;23.27;;;10.57;;
12888;SDS011;56848;49.896;11.424;2022-11-15T06:15:23;52.77;;;12.83;;
12888;SDS011;56848;49.896;11.424;2022-11-15T06:17:48;20.97;;;11.30;;
12888;SDS011;56848;49.896;11.424;2022-11-15T06:20:14;30.23;;;11.37;;
12888;SDS011;56848;49.896;11.424;2022-11-15T06:22:40;26.67;;;12.37;;
12888;SDS011;56848;49.896;11.424;2022-11-15T06:25:05;24.33;;;11.40;;
12888;SDS011;56848;49.896;11.424;2022-11-15T06:27:31;25.33;;;12.43;;
12888;SDS011;56848;49.896;11.424;2022-11-15T06:29:57;24.93;;;11.80;;
12888;SDS011;56848;49.896;11.424;2022-11-15T06:32:22;28.13;;;11.10;;
12888;SDS011;56848;49.896;11.424;2022-11-15T06:34:48;18.70;;;10.47;;
12888;SDS011;56848;49.896;11.424;2022-11-15T06:37:13;21.37;;;10.57;;
12888;SDS011;56848;49.896;11.424;2022-11-15T06:39:39;28.93;;;13.00;;
12888;SDS011;56848;49.896;11.424;2022-11-15T06:42:04;24.60;;;11.70;;
12888;SDS011;56848;49.896;11.424;2022-11-15T06:44:30;20.40;;;11.50;;
12888;SDS011;56848;49.896;11.424;2022-11-15T06:46:55;21.60;;;11.37;;
12888;SDS011;56848;49.896;11.424;2022-11-15T06:49:21;24.00;;;12.33;;
12888;SDS011;56848;49.896;11.424;2022-11-15T06:51:46;22.47;;;11.23;;
12888;SDS011;56848;49.896;11.424;2022-11-15T06:54:12;21.43;;;11.20;;
12888;SDS011;56848;49.896;11.424;2022-11-15T06:56:37;19.23;;;11.10;;
12888;SDS011;56848;49.896;11.424;2022-11-15T06:59:03;22.60;;;11.57;;
12888;SDS011;56848;49.896;11.424;2022-11-15T07:01:29;19.00;;;11.03;;
12888;SDS011;56848;49.896;11.424;2022-11-15T07:03:54;20.83;;;12.17;;
12888;SDS011;56848;49.896;11.424;2022-11-15T07:06:20;29.47;;;11.30;;
12888;SDS011;56848;49.896;11.424;2022-11-15T07:08:45;19.73;;;10.50;;
12888;SDS011;56848;49.896;11.424;2022-11-15T07:11:11;21.87;;;11.97;;
12888;SDS011;56848;49.896;11.424;2022-11-15T07:13:36;20.60;;;12.10;;
12888;SDS011;56848;49.896;11.424;2022-11-15T07:16:03;24.97;;;12.13;;
12888;SDS011;56848;49.896;11.424;2022-11-15T07:18:30;20.17;;;11.37;;
12888;SDS011;56848;49.896;11.424;2022-11-15T07:20:59;21.80;;;11.03;;
12888;SDS011;56848;49.896;11.424;2022-11-15T07:23:26;18.03;;;10.07;;
12888;SDS011;56848;49.896;11.424;2022-11-15T07:25:51;16.63;;;10.03;;
12888;SDS011;56848;49.896;11.424;2022-11-15T07:28:17;16.80;;;9.63;;
12888;SDS011;56848;49.896;11.424;2022-11-15T07:30:42;18.10;;;10.40;;
12888;SDS011;56848;49.896;11.424;2022-11-15T07:33:08;23.70;;;9.90;;
12888;SDS011;56848;49.896;11.424;2022-11-15T07:35:33;17.00;;;9.53;;
12888;SDS011;56848;49.896;11.424;2022-11-15T07:38:00;19.30;;;10.93;;
12888;SDS011;56848;49.896;11.424;2022-11-15T07:40:26;21.87;;;11.63;;
12888;SDS011;56848;49.896;11.424;2022-11-15T07:43:01;20.37;;;11.23;;
12888;SDS011;56848;49.896;11.424;2022-11-15T07:45:27;19.03;;;11.40;;
12888;SDS011;56848;49.896;11.424;2022-11-15T07:47:53;24.47;;;13.60;;
12888;SDS011;56848;49.896;11.424;2022-11-15T07:50:19;28.53;;;14.43;;
12888;SDS011;56848;49.896;11.424;2022-11-15T07:52:44;23.73;;;12.80;;
12888;SDS011;56848;49.896;11.424;2022-11-15T07:55:10;28.67;;;14.50;;
12888;SDS011;56848;49.896;11.424;2022-11-15T07:57:36;26.40;;;12.70;;
12888;SDS011;56848;49.896;11.424;2022-11-15T08:00:03;26.43;;;13.20;;
12888;SDS011;56848;49.896;11.424;2022-11-15T08:02:30;27.37;;;14.10;;
12888;SDS011;56848;49.896;11.424;2022-11-15T08:04:56;27.13;;;13.57;;
12888;SDS011;56848;49.896;11.424;2022-11-15T08:07:21;30.43;;;14.70;;
12888;SDS011;56848;49.896;11.424;2022-11-15T08:09:47;31.43;;;14.20;;
12888;SDS011;56848;49.896;11.424;2022-11-15T08:12:13;25.43;;;13.17;;
12888;SDS011;56848;49.896;11.424;2022-11-15T08:14:39;29.57;;;14.30;;
12888;SDS011;56848;49.896;11.424;2022-11-15T08:17:05;30.70;;;13.80;;
12888;SDS011;56848;49.896;11.424;2022-11-15T08:19:31;25.00;;;13.50;;
12888;SDS011;56848;49.896;11.424;2022-11-15T08:21:56;23.83;;;13.27;;
12888;SDS011;56848;49.896;11.424;2022-11-15T08:24:22;27.40;;;13.70;;
12888;SDS011;56848;49.896;11.424;2022-11-15T08:26:47;24.33;;;12.83;;
12888;SDS011;56848;49.896;11.424;2022-11-15T08:29:13;21.07;;;12.93;;
12888;SDS011;56848;49.896;11.424;2022-11-15T08:31:38;24.70;;;12.03;;
12888;SDS011;56848;49.896;11.424;2022-11-15T08:34:04;25.37;;;12.90;;
12888;SDS011;56848;49.896;11.424;2022-11-15T08:36:31;22.23;;;12.77;;
12888;SDS011;56848;49.896;11.424;2022-11-15T08:38:57;20.73;;;11.00;;
12888;SDS011;56848;49.896;11.424;2022-11-15T08:41:28;24.63;;;13.27;;
12888;SDS011;56848;49.896;11.424;2022-11-15T08:44:00;22.73;;;12.10;;
12888;SDS011;56848;49.896;11.424;2022-11-15T08:46:26;20.70;;;10.97;;
12888;SDS011;56848;49.896;11.424;2022-11-15T08:48:52;18.10;;;10.90;;
12888;SDS011;56848;49.896;11.424;2022-11-15T08:51:17;20.87;;;11.97;;
12888;SDS011;56848;49.896;11.424;2022-11-15T08:53:43;16.10;;;9.73;;
12888;SDS011;56848;49.896;11.424;2022-11-15T08:56:10;18.87;;;10.33;;
12888;SDS011;56848;49.896;11.424;2022-11-15T08:58:37;15.10;;;9.20;;
12888;SDS011;56848;49.896;11.424;2022-11-15T09:01:03;18.90;;;9.27;;
12888;SDS011;56848;49.896;11.424;2022-11-15T09:03:29;20.50;;;10.33;;
12888;SDS011;56848;49.896;11.424;2022-11-15T09:05:56;14.57;;;9.43;;
12888;SDS011;56848;49.896;11.424;2022-11-15T09:08:22;16.60;;;9.67;;
12888;SDS011;56848;49.896;11.424;2022-11-15T09:10:48;14.27;;;8.93;;
12888;SDS011;56848;49.896;11.424;2022-11-15T09:13:13;15.67;;;9.87;;
12888;SDS011;56848;49.896;11.424;2022-11-15T09:15:39;12.57;;;9.13;;
12888;SDS011;56848;49.896;11.424;2022-11-15T09:18:05;15.60;;;8.67;;
12888;SDS011;56848;49.896;11.424;2022-11-15T09:20:30;13.97;;;8.77;;
12888;SDS011;56848;49.896;11.424;2022-11-15T09:23:00;15.50;;;8.70;;
12888;SDS011;56848;49.896;11.424;2022-11-15T09:25:26;11.83;;;7.83;;
12888;SDS011;56848;49.896;11.424;2022-11-15T09:27:52;11.73;;;7.13;;
12888;SDS011;56848;49.896;11.424;2022-11-15T09:30:17;17.03;;;8.20;;
12888;SDS011;56848;49.896;11.424;2022-11-15T09:32:43;11.53;;;6.97;;
12888;SDS011;56848;49.896;11.424;2022-11-15T09:35:08;8.50;;;6.07;;
12888;SDS011;56848;49.896;11.424;2022-11-15T09:37:34;12.53;;;7.07;;
12888;SDS011;56848;49.896;11.424;2022-11-15T09:39:59;11.43;;;6.80;;
12888;SDS011;56848;49.896;11.424;2022-11-15T09:48:17;10.00;;;6.07;;
12888;SDS011;56848;49.896;11.424;2022-11-15T09:51:04;8.00;;;5.37;;
12888;SDS011;56848;49.896;11.424;2022-11-15T09:53:47;9.90;;;6.30;;
12888;SDS011;56848;49.896;11.424;2022-11-15T09:56:19;10.00;;;6.40;;
12888;SDS011;56848;49.896;11.424;2022-11-15T10:04:32;7.67;;;4.90;;
12888;SDS011;56848;49.896;11.424;2022-11-15T10:07:06;9.17;;;6.50;;
12888;SDS011;56848;49.896;11.424;2022-11-15T10:12:22;9.37;;;6.70;;
12888;SDS011;56848;49.896;11.424;2022-11-15T10:14:49;7.97;;;5.37;;
12888;SDS011;56848;49.896;11.424;2022-11-15T10:20:29;9.23;;;5.63;;
12888;SDS011;56848;49.896;11.424;2022-11-15T10:23:01;10.80;;;6.07;;
12888;SDS011;56848;49.896;11.424;2022-11-15T10:25:31;7.70;;;5.50;;
12888;SDS011;56848;49.896;11.424;2022-11-15T10:28:09;9.33;;;5.30;;
12888;SDS011;56848;49.896;11.424;2022-11-15T10:30:41;11.17;;;5.60;;
12888;SDS011;56848;49.896;11.424;2022-11-15T10:44:02;8.03;;;5.87;;
12888;SDS011;56848;49.896;11.424;2022-11-15T10:46:34;9.57;;;5.93;;
12888;SDS011;56848;49.896;11.424;2022-11-15T10:49:20;9.50;;;7.20;;
12888;SDS011;56848;49.896;11.424;2022-11-15T10:51:47;10.50;;;5.90;;
12888;SDS011;56848;49.896;11.424;2022-11-15T10:54:30;11.57;;;5.80;;
12888;SDS011;56848;49.896;11.424;2022-11-15T10:57:08;8.93;;;6.07;;
12888;SDS011;56848;49.896;11.424;2022-11-15T11:00:01;9.67;;;5.70;;
12888;SDS011;56848;49.896;11.424;2022-11-15T11:02:47;7.63;;;5.17;;
12888;SDS011;56848;49.896;11.424;2022-11-15T11:05:34;9.63;;;5.43;;
12888;SDS011;56848;49.896;11.424;2022-11-15T11:08:18;8.63;;;5.17;;
12888;SDS011;56848;49.896;11.424;2022-11-15T11:10:51;6.73;;;4.80;;
12888;SDS011;56848;49.896;11.424;2022-11-15T11:15:55;5.60;;;4.90;;
12888;SDS011;56848;49.896;11.424;2022-11-15T11:21:14;5.83;;;4.40;;
12888;SDS011;56848;49.896;11.424;2022-11-15T11:24:00;5.10;;;4.20;;
12888;SDS011;56848;49.896;11.424;2022-11-15T11:30:08;6.87;;;4.10;;
12888;SDS011;56848;49.896;11.424;2022-11-15T11:32:57;7.33;;;3.83;;
12888;SDS011;56848;49.896;11.424;2022-11-15T11:35:32;6.93;;;4.30;;
12888;SDS011;56848;49.896;11.424;2022-11-15T11:40:35;6.50;;;4.30;;
12888;SDS011;56848;49.896;11.424;2022-11-15T11:43:11;8.43;;;4.10;;
12888;SDS011;56848;49.896;11.424;2022-11-15T11:45:44;6.73;;;4.30;;
12888;SDS011;56848;49.896;11.424;2022-11-15T11:51:14;7.87;;;4.10;;
12888;SDS011;56848;49.896;11.424;2022-11-15T11:53:57;7.03;;;4.13;;
12888;SDS011;56848;49.896;11.424;2022-11-15T11:56:26;5.37;;;4.20;;
12888;SDS011;56848;49.896;11.424;2022-11-15T11:58:54;5.03;;;4.13;;
12888;SDS011;56848;49.896;11.424;2022-11-15T12:01:29;5.80;;;3.90;;
12888;SDS011;56848;49.896;11.424;2022-11-15T12:04:01;6.97;;;3.27;;
12888;SDS011;56848;49.896;11.424;2022-11-15T12:06:57;4.73;;;3.77;;
12888;SDS011;56848;49.896;11.424;2022-11-15T12:09:33;5.03;;;3.97;;
12888;SDS011;56848;49.896;11.424;2022-11-15T12:12:13;4.57;;;3.63;;
12888;SDS011;56848;49.896;11.424;2022-11-15T12:14:55;5.33;;;3.63;;
12888;SDS011;56848;49.896;11.424;2022-11-15T12:17:25;14.30;;;3.93;;
12888;SDS011;56848;49.896;11.424;2022-11-15T12:19:57;13.73;;;3.30;;
12888;SDS011;56848;49.896;11.424;2022-11-15T12:22:46;5.73;;;3.70;;
12888;SDS011;56848;49.896;11.424;2022-11-15T12:25:21;28.97;;;4.10;;
12888;SDS011;56848;49.896;11.424;2022-11-15T12:27:57;5.70;;;3.93;;
12888;SDS011;56848;49.896;11.424;2022-11-15T12:30:25;6.50;;;4.03;;
12888;SDS011;56848;49.896;11.424;2022-11-15T12:33:02;8.67;;;3.43;;
12888;SDS011;56848;49.896;11.424;2022-11-15T12:37:56;3.80;;;3.23;;
12888;SDS011;56848;49.896;11.424;2022-11-15T12:45:24;3.80;;;3.50;;
12888;SDS011;56848;49.896;11.424;2022-11-15T12:47:52;5.60;;;3.80;;
12888;SDS011;56848;49.896;11.424;2022-11-15T12:50:45;4.17;;;3.57;;
12888;SDS011;56848;49.896;11.424;2022-11-15T12:53:33;4.70;;;3.20;;
12888;SDS011;56848;49.896;11.424;2022-11-15T13:14:54;5.80;;;3.57;;
12888;SDS011;56848;49.896;11.424;2022-11-15T13:22:39;4.80;;;3.53;;
12888;SDS011;56848;49.896;11.424;2022-11-15T13:27:57;6.47;;;3.73;;
12888;SDS011;56848;49.896;11.424;2022-11-15T13:30:27;6.20;;;3.70;;
12888;SDS011;56848;49.896;11.424;2022-11-15T13:32:54;7.27;;;4.30;;
12888;SDS011;56848;49.896;11.424;2022-11-15T13:35:22;3.83;;;3.47;;
12888;SDS011;56848;49.896;11.424;2022-11-15T13:37:49;4.87;;;3.93;;
12888;SDS011;56848;49.896;11.424;2022-11-15T13:42:47;8.10;;;3.93;;
12888;SDS011;56848;49.896;11.424;2022-11-15T13:45:13;7.90;;;3.73;;
12888;SDS011;56848;49.896;11.424;2022-11-15T13:47:41;5.60;;;4.30;;
12888;SDS011;56848;49.896;11.424;2022-11-15T13:50:10;7.57;;;5.07;;
12888;SDS011;56848;49.896;11.424;2022-11-15T13:52:37;4.70;;;4.20;;
12888;SDS011;56848;49.896;11.424;2022-11-15T13:55:12;7.77;;;4.23;;
12888;SDS011;56848;49.896;11.424;2022-11-15T13:57:42;6.40;;;4.40;;
12888;SDS011;56848;49.896;11.424;2022-11-15T14:00:25;7.67;;;4.57;;
12888;SDS011;56848;49.896;11.424;2022-11-15T14:02:51;7.10;;;4.27;;
12888;SDS011;56848;49.896;11.424;2022-11-15T14:05:18;7.50;;;4.57;;
12888;SDS011;56848;49.896;11.424;2022-11-15T14:07:56;8.83;;;4.00;;
12888;SDS011;56848;49.896;11.424;2022-11-15T14:10:31;8.40;;;4.93;;
12888;SDS011;56848;49.896;11.424;2022-11-15T14:12:58;8.63;;;4.40;;
12888;SDS011;56848;49.896;11.424;2022-11-15T14:17:53;6.17;;;4.30;;
12888;SDS011;56848;49.896;11.424;2022-11-15T14:22:51;6.37;;;4.70;;
12888;SDS011;56848;49.896;11.424;2022-11-15T14:25:21;5.77;;;4.20;;
12888;SDS011;56848;49.896;11.424;2022-11-15T14:30:40;7.13;;;5.00;;
12888;SDS011;56848;49.896;11.424;2022-11-15T14:33:21;7.07;;;4.67;;
12888;SDS011;56848;49.896;11.424;2022-11-15T14:35:50;8.60;;;5.30;;
12888;SDS011;56848;49.896;11.424;2022-11-15T14:38:17;6.40;;;4.97;;
12888;SDS011;56848;49.896;11.424;2022-11-15T14:40:43;8.77;;;6.60;;
12888;SDS011;56848;49.896;11.424;2022-11-15T14:43:12;13.23;;;7.17;;
12888;SDS011;56848;49.896;11.424;2022-11-15T14:45:38;8.83;;;6.13;;
12888;SDS011;56848;49.896;11.424;2022-11-15T14:48:05;15.97;;;7.77;;
12888;SDS011;56848;49.896;11.424;2022-11-15T14:50:31;12.60;;;7.53;;
12888;SDS011;56848;49.896;11.424;2022-11-15T14:52:58;15.60;;;8.70;;
12888;SDS011;56848;49.896;11.424;2022-11-15T14:55:24;15.33;;;9.13;;
12888;SDS011;56848;49.896;11.424;2022-11-15T14:57:53;15.10;;;8.73;;
12888;SDS011;56848;49.896;11.424;2022-11-15T15:00:19;15.27;;;8.07;;
12888;SDS011;56848;49.896;11.424;2022-11-15T15:02:46;18.43;;;7.60;;
12888;SDS011;56848;49.896;11.424;2022-11-15T15:05:23;10.87;;;7.57;;
12888;SDS011;56848;49.896;11.424;2022-11-15T15:07:59;10.67;;;7.07;;
12888;SDS011;56848;49.896;11.424;2022-11-15T15:10:25;10.97;;;7.07;;
12888;SDS011;56848;49.896;11.424;2022-11-15T15:12:55;12.40;;;7.07;;
12888;SDS011;56848;49.896;11.424;2022-11-15T15:15:25;13.23;;;7.60;;
12888;SDS011;56848;49.896;11.424;2022-11-15T15:17:56;16.03;;;7.77;;
12888;SDS011;56848;49.896;11.424;2022-11-15T15:20:22;13.63;;;7.90;;
12888;SDS011;56848;49.896;11.424;2022-11-15T15:22:47;10.67;;;6.90;;
12888;SDS011;56848;49.896;11.424;2022-11-15T15:25:20;16.47;;;7.50;;
12888;SDS011;56848;49.896;11.424;2022-11-15T15:27:56;12.47;;;7.50;;
12888;SDS011;56848;49.896;11.424;2022-11-15T15:30:22;11.70;;;7.47;;
12888;SDS011;56848;49.896;11.424;2022-11-15T15:32:48;11.90;;;6.93;;
12888;SDS011;56848;49.896;11.424;2022-11-15T15:35:14;14.50;;;7.27;;
12888;SDS011;56848;49.896;11.424;2022-11-15T15:37:41;13.77;;;6.87;;
12888;SDS011;56848;49.896;11.424;2022-11-15T15:40:30;13.10;;;7.80;;
12888;SDS011;56848;49.896;11.424;2022-11-15T15:42:56;15.07;;;6.80;;
12888;SDS011;56848;49.896;11.424;2022-11-15T15:45:21;12.13;;;6.40;;
12888;SDS011;56848;49.896;11.424;2022-11-15T15:47:47;11.23;;;6.43;;
12888;SDS011;56848;49.896;11.424;2022-11-15T15:50:27;11.70;;;6.90;;
12888;SDS011;56848;49.896;11.424;2022-11-15T15:52:56;15.40;;;7.87;;
12888;SDS011;56848;49.896;11.424;2022-11-15T15:55:23;10.20;;;7.00;;
12888;SDS011;56848;49.896;11.424;2022-11-15T15:57:50;10.00;;;6.80;;
12888;SDS011;56848;49.896;11.424;2022-11-15T16:00:16;13.13;;;7.77;;
12888;SDS011;56848;49.896;11.424;2022-11-15T16:02:43;11.30;;;6.93;;
12888;SDS011;56848;49.896;11.424;2022-11-15T16:05:09;12.50;;;7.23;;
12888;SDS011;56848;49.896;11.424;2022-11-15T16:07:35;13.67;;;7.30;;
12888;SDS011;56848;49.896;11.424;2022-11-15T16:10:04;11.60;;;7.67;;
12888;SDS011;56848;49.896;11.424;2022-11-15T16:12:42;13.00;;;7.20;;
12888;SDS011;56848;49.896;11.424;2022-11-15T16:15:07;10.50;;;7.00;;
12888;SDS011;56848;49.896;11.424;2022-11-15T16:17:34;12.80;;;6.70;;
12888;SDS011;56848;49.896;11.424;2022-11-15T16:20:03;15.00;;;7.90;;
12888;SDS011;56848;49.896;11.424;2022-11-15T16:22:29;11.30;;;6.80;;
12888;SDS011;56848;49.896;11.424;2022-11-15T16:24:55;16.90;;;9.13;;
12888;SDS011;56848;49.896;11.424;2022-11-15T16:27:21;18.10;;;8.67;;
12888;SDS011;56848;49.896;11.424;2022-11-15T16:29:47;28.70;;;12.17;;
12888;SDS011;56848;49.896;11.424;2022-11-15T16:32:14;17.43;;;9.27;;
12888;SDS011;56848;49.896;11.424;2022-11-15T16:34:40;25.13;;;12.10;;
12888;SDS011;56848;49.896;11.424;2022-11-15T16:37:05;13.47;;;8.90;;
12888;SDS011;56848;49.896;11.424;2022-11-15T16:39:43;18.43;;;11.10;;
12888;SDS011;56848;49.896;11.424;2022-11-15T16:42:09;28.87;;;14.80;;
12888;SDS011;56848;49.896;11.424;2022-11-15T16:44:34;25.83;;;13.93;;
12888;SDS011;56848;49.896;11.424;2022-11-15T16:47:00;17.60;;;10.60;;
12888;SDS011;56848;49.896;11.424;2022-11-15T16:49:26;18.00;;;10.30;;
12888;SDS011;56848;49.896;11.424;2022-11-15T16:51:51;16.30;;;9.23;;
12888;SDS011;56848;49.896;11.424;2022-11-15T16:54:17;19.17;;;9.77;;
12888;SDS011;56848;49.896;11.424;2022-11-15T16:56:43;18.03;;;9.80;;
12888;SDS011;56848;49.896;11.424;2022-11-15T16:59:10;16.00;;;10.00;;
12888;SDS011;56848;49.896;11.424;2022-11-15T17:01:41;16.30;;;9.43;;
12888;SDS011;56848;49.896;11.424;2022-11-15T17:04:17;14.00;;;8.43;;
12888;SDS011;56848;49.896;11.424;2022-11-15T17:06:45;13.83;;;9.03;;
12888;SDS011;56848;49.896;11.424;2022-11-15T17:09:16;13.63;;;9.50;;
12888;SDS011;56848;49.896;11.424;2022-11-15T17:11:48;22.43;;;10.50;;
12888;SDS011;56848;49.896;11.424;2022-11-15T17:14:14;17.97;;;9.73;;
12888;SDS011;56848;49.896;11.424;2022-11-15T17:16:40;17.30;;;9.70;;
12888;SDS011;56848;49.896;11.424;2022-11-15T17:19:16;32.23;;;15.10;;
12888;SDS011;56848;49.896;11.424;2022-11-15T17:21:44;25.57;;;12.30;;
12888;SDS011;56848;49.896;11.424;2022-11-15T17:24:11;19.83;;;10.53;;
12888;SDS011;56848;49.896;11.424;2022-11-15T17:26:36;19.00;;;10.80;;
12888;SDS011;56848;49.896;11.424;2022-11-15T17:29:03;27.13;;;10.70;;
12888;SDS011;56848;49.896;11.424;2022-11-15T17:31:31;19.80;;;11.20;;
12888;SDS011;56848;49.896;11.424;2022-11-15T17:34:01;27.00;;;13.13;;
12888;SDS011;56848;49.896;11.424;2022-11-15T17:36:28;21.10;;;10.90;;
12888;SDS011;56848;49.896;11.424;2022-11-15T17:38:54;21.00;;;10.17;;
12888;SDS011;56848;49.896;11.424;2022-11-15T17:41:20;15.80;;;8.50;;
12888;SDS011;56848;49.896;11.424;2022-11-15T17:43:45;22.00;;;11.60;;
12888;SDS011;56848;49.896;11.424;2022-11-15T17:46:13;22.40;;;11.60;;
12888;SDS011;56848;49.896;11.424;2022-11-15T17:48:41;17.80;;;9.57;;
12888;SDS011;56848;49.896;11.424;2022-11-15T17:51:09;19.70;;;10.27;;
12888;SDS011;56848;49.896;11.424;2022-11-15T17:53:37;17.97;;;10.33;;
12888;SDS011;56848;49.896;11.424;2022-11-15T17:56:05;20.00;;;9.63;;
12888;SDS011;56848;49.896;11.424;2022-11-15T17:58:36;17.23;;;10.30;;
12888;SDS011;56848;49.896;11.424;2022-11-15T18:03:44;19.77;;;11.13;;
12888;SDS011;56848;49.896;11.424;2022-11-15T18:06:10;23.33;;;11.03;;
12888;SDS011;56848;49.896;11.424;2022-11-15T18:08:37;21.83;;;11.50;;
12888;SDS011;56848;49.896;11.424;2022-11-15T18:13:40;19.33;;;11.00;;
12888;SDS011;56848;49.896;11.424;2022-11-15T18:16:10;20.07;;;10.63;;
12888;SDS011;56848;49.896;11.424;2022-11-15T18:18:37;18.40;;;10.43;;
12888;SDS011;56848;49.896;11.424;2022-11-15T18:21:04;19.97;;;10.70;;
12888;SDS011;56848;49.896;11.424;2022-11-15T18:23:30;16.70;;;9.53;;
12888;SDS011;56848;49.896;11.424;2022-11-15T18:25:56;19.03;;;9.50;;
12888;SDS011;56848;49.896;11.424;2022-11-15T18:28:27;15.20;;;9.70;;
12888;SDS011;56848;49.896;11.424;2022-11-15T18:30:54;17.40;;;10.57;;
12888;SDS011;56848;49.896;11.424;2022-11-15T18:33:20;17.03;;;9.53;;
12888;SDS011;56848;49.896;11.424;2022-11-15T18:35:46;21.57;;;11.10;;
12888;SDS011;56848;49.896;11.424;2022-11-15T18:38:12;18.67;;;11.00;;
12888;SDS011;56848;49.896;11.424;2022-11-15T18:40:38;18.77;;;9.67;;
12888;SDS011;56848;49.896;11.424;2022-11-15T18:43:04;16.67;;;10.80;;
12888;SDS011;56848;49.896;11.424;2022-11-15T18:45:29;18.73;;;10.80;;
12888;SDS011;56848;49.896;11.424;2022-11-15T18:47:57;15.00;;;9.90;;
12888;SDS011;56848;49.896;11.424;2022-11-15T18:50:23;18.80;;;11.03;;
12888;SDS011;56848;49.896;11.424;2022-11-15T18:52:48;17.60;;;12.30;;
12888;SDS011;56848;49.896;11.424;2022-11-15T18:55:14;17.93;;;11.20;;
12888;SDS011;56848;49.896;11.424;2022-11-15T18:57:40;23.40;;;10.87;;
12888;SDS011;56848;49.896;11.424;2022-11-15T19:00:05;16.70;;;10.77;;
12888;SDS011;56848;49.896;11.424;2022-11-15T19:02:33;15.93;;;10.20;;
12888;SDS011;56848;49.896;11.424;2022-11-15T19:04:58;16.50;;;10.03;;
12888;SDS011;56848;49.896;11.424;2022-11-15T19:07:24;18.70;;;10.47;;
12888;SDS011;56848;49.896;11.424;2022-11-15T19:09:50;22.53;;;10.50;;
12888;SDS011;56848;49.896;11.424;2022-11-15T19:12:15;23.73;;;12.00;;
12888;SDS011;56848;49.896;11.424;2022-11-15T19:14:41;25.63;;;10.43;;
12888;SDS011;56848;49.896;11.424;2022-11-15T19:17:06;22.47;;;11.00;;
12888;SDS011;56848;49.896;11.424;2022-11-15T19:19:32;15.93;;;9.30;;
12888;SDS011;56848;49.896;11.424;2022-11-15T19:21:57;15.20;;;8.83;;
12888;SDS011;56848;49.896;11.424;2022-11-15T19:24:24;15.80;;;7.40;;
12888;SDS011;56848;49.896;11.424;2022-11-15T19:26:51;11.37;;;7.60;;
12888;SDS011;56848;49.896;11.424;2022-11-15T19:29:17;15.57;;;7.70;;
12888;SDS011;56848;49.896;11.424;2022-11-15T19:31:42;14.90;;;8.43;;
12888;SDS011;56848;49.896;11.424;2022-11-15T19:34:09;13.97;;;9.70;;
12888;SDS011;56848;49.896;11.424;2022-11-15T19:36:36;13.73;;;8.90;;
12888;SDS011;56848;49.896;11.424;2022-11-15T19:39:07;12.27;;;8.07;;
12888;SDS011;56848;49.896;11.424;2022-11-15T19:41:37;11.43;;;8.37;;
12888;SDS011;56848;49.896;11.424;2022-11-15T19:44:04;11.43;;;7.47;;
12888;SDS011;56848;49.896;11.424;2022-11-15T19:46:30;10.53;;;7.40;;
12888;SDS011;56848;49.896;11.424;2022-11-15T19:48:56;17.27;;;9.60;;
12888;SDS011;56848;49.896;11.424;2022-11-15T19:51:22;11.70;;;7.73;;
12888;SDS011;56848;49.896;11.424;2022-11-15T19:53:53;14.80;;;8.40;;
12888;SDS011;56848;49.896;11.424;2022-11-15T19:56:20;14.00;;;8.33;;
12888;SDS011;56848;49.896;11.424;2022-11-15T19:58:53;11.93;;;6.87;;
12888;SDS011;56848;49.896;11.424;2022-11-15T20:01:20;9.97;;;6.90;;
12888;SDS011;56848;49.896;11.424;2022-11-15T20:03:47;11.27;;;6.37;;
12888;SDS011;56848;49.896;11.424;2022-11-15T20:06:18;14.30;;;6.43;;
12888;SDS011;56848;49.896;11.424;2022-11-15T20:08:45;8.87;;;5.70;;
12888;SDS011;56848;49.896;11.424;2022-11-15T20:11:12;9.97;;;5.93;;
12888;SDS011;56848;49.896;11.424;2022-11-15T20:13:39;12.03;;;6.03;;
12888;SDS011;56848;49.896;11.424;2022-11-15T20:16:06;12.20;;;5.90;;
12888;SDS011;56848;49.896;11.424;2022-11-15T20:18:44;9.93;;;6.33;;
12888;SDS011;56848;49.896;11.424;2022-11-15T20:21:10;7.10;;;5.13;;
12888;SDS011;56848;49.896;11.424;2022-11-15T20:23:35;8.03;;;5.37;;
12888;SDS011;56848;49.896;11.424;2022-11-15T20:26:01;8.27;;;5.40;;
12888;SDS011;56848;49.896;11.424;2022-11-15T20:28:27;10.00;;;5.27;;
12888;SDS011;56848;49.896;11.424;2022-11-15T20:30:54;8.30;;;5.87;;
12888;SDS011;56848;49.896;11.424;2022-11-15T20:33:24;9.63;;;4.60;;
12888;SDS011;56848;49.896;11.424;2022-11-15T20:35:50;9.30;;;5.47;;
12888;SDS011;56848;49.896;11.424;2022-11-15T20:38:16;10.57;;;5.97;;
12888;SDS011;56848;49.896;11.424;2022-11-15T20:40:46;14.50;;;6.70;;
12888;SDS011;56848;49.896;11.424;2022-11-15T20:43:14;10.90;;;7.50;;
12888;SDS011;56848;49.896;11.424;2022-11-15T20:45:47;13.40;;;7.67;;
12888;SDS011;56848;49.896;11.424;2022-11-15T20:48:14;14.63;;;6.17;;
12888;SDS011;56848;49.896;11.424;2022-11-15T20:50:40;13.13;;;6.80;;
12888;SDS011;56848;49.896;11.424;2022-11-15T20:53:07;13.80;;;5.97;;
12888;SDS011;56848;49.896;11.424;2022-11-15T20:55:37;7.10;;;5.13;;
12888;SDS011;56848;49.896;11.424;2022-11-15T20:58:04;9.40;;;6.00;;
12888;SDS011;56848;49.896;11.424;2022-11-15T21:00:30;8.03;;;5.70;;
12888;SDS011;56848;49.896;11.424;2022-11-15T21:02:56;16.70;;;7.90;;